sensor_id;sensor_type;location;lat;lon;timestamp;temperature;humidity
79024;DHT22;70306;44.764;37.688;2023-08-01T00:00:37;25.86;65.44
79024;DHT22;70306;44.764;37.688;2023-08-01T00:01:39;25.80;64.84
79024;DHT22;70306;44.764;37.688;2023-08-01T00:02:41;25.75;64.45
79024;DHT22;70306;44.764;37.688;2023-08-01T00:03:46;25.72;64.40
79024;DHT22;70306;44.764;37.688;2023-08-01T00:04:48;25.68;64.47
79024;DHT22;70306;44.764;37.688;2023-08-01T00:05:50;25.63;64.54
79024;DHT22;70306;44.764;37.688;2023-08-01T00:06:52;25.58;64.41
79024;DHT22;70306;44.764;37.688;2023-08-01T00:07:54;25.57;64.28
79024;DHT22;70306;44.764;37.688;2023-08-01T00:08:56;25.49;64.16
79024;DHT22;70306;44.764;37.688;2023-08-01T00:09:58;25.45;64.70
79024;DHT22;70306;44.764;37.688;2023-08-01T00:11:00;25.42;64.57
79024;DHT22;70306;44.764;37.688;2023-08-01T00:12:02;25.44;65.18
79024;DHT22;70306;44.764;37.688;2023-08-01T00:13:04;25.41;64.40
79024;DHT22;70306;44.764;37.688;2023-08-01T00:14:06;25.38;64.55
79024;DHT22;70306;44.764;37.688;2023-08-01T00:15:08;25.37;64.83
79024;DHT22;70306;44.764;37.688;2023-08-01T00:16:10;25.31;64.72
79024;DHT22;70306;44.764;37.688;2023-08-01T00:17:12;25.35;64.79
79024;DHT22;70306;44.764;37.688;2023-08-01T00:18:14;25.33;64.79
79024;DHT22;70306;44.764;37.688;2023-08-01T00:19:16;25.33;65.49
79024;DHT22;70306;44.764;37.688;2023-08-01T00:20:19;25.33;64.50
79024;DHT22;70306;44.764;37.688;2023-08-01T00:21:21;25.28;65.16
79024;DHT22;70306;44.764;37.688;2023-08-01T00:22:23;25.28;65.58
79024;DHT22;70306;44.764;37.688;2023-08-01T00:23:25;25.31;65.40
79024;DHT22;70306;44.764;37.688;2023-08-01T00:24:27;25.28;65.36
79024;DHT22;70306;44.764;37.688;2023-08-01T00:25:29;25.27;65.64
79024;DHT22;70306;44.764;37.688;2023-08-01T00:26:30;25.28;65.82
79024;DHT22;70306;44.764;37.688;2023-08-01T00:27:32;25.28;66.26
79024;DHT22;70306;44.764;37.688;2023-08-01T00:28:34;25.30;66.22
79024;DHT22;70306;44.764;37.688;2023-08-01T00:29:36;25.30;66.53
79024;DHT22;70306;44.764;37.688;2023-08-01T00:30:38;25.31;66.23
79024;DHT22;70306;44.764;37.688;2023-08-01T00:31:41;25.30;66.06
79024;DHT22;70306;44.764;37.688;2023-08-01T00:32:43;25.30;66.15
79024;DHT22;70306;44.764;37.688;2023-08-01T00:33:45;25.31;66.21
79024;DHT22;70306;44.764;37.688;2023-08-01T00:34:50;25.27;65.93
79024;DHT22;70306;44.764;37.688;2023-08-01T00:35:53;25.27;66.02
79024;DHT22;70306;44.764;37.688;2023-08-01T00:36:56;25.28;66.10
79024;DHT22;70306;44.764;37.688;2023-08-01T00:37:58;25.28;65.74
79024;DHT22;70306;44.764;37.688;2023-08-01T00:39:00;25.24;65.38
79024;DHT22;70306;44.764;37.688;2023-08-01T00:40:02;25.23;65.24
79024;DHT22;70306;44.764;37.688;2023-08-01T00:41:05;25.16;65.34
79024;DHT22;70306;44.764;37.688;2023-08-01T00:42:06;25.14;65.50
79024;DHT22;70306;44.764;37.688;2023-08-01T00:43:08;25.09;65.56
79024;DHT22;70306;44.764;37.688;2023-08-01T00:44:10;25.07;65.29
79024;DHT22;70306;44.764;37.688;2023-08-01T00:45:12;25.06;66.26
79024;DHT22;70306;44.764;37.688;2023-08-01T00:46:14;25.10;66.47
79024;DHT22;70306;44.764;37.688;2023-08-01T00:47:17;25.11;66.50
79024;DHT22;70306;44.764;37.688;2023-08-01T00:48:21;25.10;67.14
79024;DHT22;70306;44.764;37.688;2023-08-01T00:49:23;25.14;66.20
79024;DHT22;70306;44.764;37.688;2023-08-01T00:50:25;25.14;65.80
79024;DHT22;70306;44.764;37.688;2023-08-01T00:51:27;25.14;68.19
79024;DHT22;70306;44.764;37.688;2023-08-01T00:52:30;25.20;68.08
79024;DHT22;70306;44.764;37.688;2023-08-01T00:53:33;25.16;68.63
79024;DHT22;70306;44.764;37.688;2023-08-01T00:54:35;25.20;68.82
79024;DHT22;70306;44.764;37.688;2023-08-01T00:55:38;25.21;68.79
79024;DHT22;70306;44.764;37.688;2023-08-01T00:56:40;25.27;69.11
79024;DHT22;70306;44.764;37.688;2023-08-01T00:57:42;25.24;67.80
79024;DHT22;70306;44.764;37.688;2023-08-01T00:58:45;25.23;67.03
79024;DHT22;70306;44.764;37.688;2023-08-01T00:59:46;25.24;67.81
79024;DHT22;70306;44.764;37.688;2023-08-01T01:00:49;25.24;67.59
79024;DHT22;70306;44.764;37.688;2023-08-01T01:01:52;25.24;67.53
79024;DHT22;70306;44.764;37.688;2023-08-01T01:02:54;25.21;67.55
79024;DHT22;70306;44.764;37.688;2023-08-01T01:03:56;25.21;67.18
79024;DHT22;70306;44.764;37.688;2023-08-01T01:04:58;25.21;67.56
79024;DHT22;70306;44.764;37.688;2023-08-01T01:07:22;25.17;67.77
79024;DHT22;70306;44.764;37.688;2023-08-01T01:08:25;25.17;68.08
79024;DHT22;70306;44.764;37.688;2023-08-01T01:09:29;25.17;68.06
79024;DHT22;70306;44.764;37.688;2023-08-01T01:10:33;25.20;67.97
79024;DHT22;70306;44.764;37.688;2023-08-01T01:11:35;25.20;67.99
79024;DHT22;70306;44.764;37.688;2023-08-01T01:12:37;25.24;67.97
79024;DHT22;70306;44.764;37.688;2023-08-01T01:13:39;25.27;68.46
79024;DHT22;70306;44.764;37.688;2023-08-01T01:14:41;25.28;68.95
79024;DHT22;70306;44.764;37.688;2023-08-01T01:15:43;25.28;68.92
79024;DHT22;70306;44.764;37.688;2023-08-01T01:16:45;25.28;68.78
79024;DHT22;70306;44.764;37.688;2023-08-01T01:17:47;25.26;68.75
79024;DHT22;70306;44.764;37.688;2023-08-01T01:18:49;25.27;69.24
79024;DHT22;70306;44.764;37.688;2023-08-01T01:19:51;25.26;68.91
79024;DHT22;70306;44.764;37.688;2023-08-01T01:20:53;25.26;68.96
79024;DHT22;70306;44.764;37.688;2023-08-01T01:22:03;25.27;69.59
79024;DHT22;70306;44.764;37.688;2023-08-01T01:23:06;25.28;69.95
79024;DHT22;70306;44.764;37.688;2023-08-01T01:24:10;25.28;69.78
79024;DHT22;70306;44.764;37.688;2023-08-01T01:25:12;25.26;69.64
79024;DHT22;70306;44.764;37.688;2023-08-01T01:26:15;25.24;69.49
79024;DHT22;70306;44.764;37.688;2023-08-01T01:27:23;25.23;70.41
79024;DHT22;70306;44.764;37.688;2023-08-01T01:28:26;25.23;69.83
79024;DHT22;70306;44.764;37.688;2023-08-01T01:29:29;25.21;69.35
79024;DHT22;70306;44.764;37.688;2023-08-01T01:30:32;25.20;69.50
79024;DHT22;70306;44.764;37.688;2023-08-01T01:31:38;25.20;69.49
79024;DHT22;70306;44.764;37.688;2023-08-01T01:32:40;25.16;69.32
79024;DHT22;70306;44.764;37.688;2023-08-01T01:33:43;25.17;69.50
79024;DHT22;70306;44.764;37.688;2023-08-01T01:34:44;25.20;69.91
79024;DHT22;70306;44.764;37.688;2023-08-01T01:35:47;25.14;69.48
79024;DHT22;70306;44.764;37.688;2023-08-01T01:36:49;25.11;69.53
79024;DHT22;70306;44.764;37.688;2023-08-01T01:37:51;25.09;69.56
79024;DHT22;70306;44.764;37.688;2023-08-01T01:38:53;25.14;70.17
79024;DHT22;70306;44.764;37.688;2023-08-01T01:39:55;25.16;69.75
79024;DHT22;70306;44.764;37.688;2023-08-01T01:40:57;25.14;69.64
79024;DHT22;70306;44.764;37.688;2023-08-01T01:41:59;25.13;69.57
79024;DHT22;70306;44.764;37.688;2023-08-01T01:43:01;25.13;70.52
79024;DHT22;70306;44.764;37.688;2023-08-01T01:44:03;25.11;71.56
79024;DHT22;70306;44.764;37.688;2023-08-01T01:45:05;25.14;70.99
79024;DHT22;70306;44.764;37.688;2023-08-01T01:46:07;25.19;71.16
79024;DHT22;70306;44.764;37.688;2023-08-01T01:47:09;25.17;71.31
79024;DHT22;70306;44.764;37.688;2023-08-01T01:48:11;25.13;70.95
79024;DHT22;70306;44.764;37.688;2023-08-01T01:49:13;25.14;70.92
79024;DHT22;70306;44.764;37.688;2023-08-01T01:50:15;25.13;71.03
79024;DHT22;70306;44.764;37.688;2023-08-01T01:51:17;25.13;70.49
79024;DHT22;70306;44.764;37.688;2023-08-01T01:52:19;25.10;70.47
79024;DHT22;70306;44.764;37.688;2023-08-01T01:53:21;25.13;70.80
79024;DHT22;70306;44.764;37.688;2023-08-01T01:54:23;25.16;71.20
79024;DHT22;70306;44.764;37.688;2023-08-01T01:55:25;25.17;71.03
79024;DHT22;70306;44.764;37.688;2023-08-01T01:56:27;25.19;71.29
79024;DHT22;70306;44.764;37.688;2023-08-01T01:57:29;25.20;71.32
79024;DHT22;70306;44.764;37.688;2023-08-01T01:58:31;25.21;71.22
79024;DHT22;70306;44.764;37.688;2023-08-01T01:59:33;25.20;71.35
79024;DHT22;70306;44.764;37.688;2023-08-01T02:00:35;25.24;71.38
79024;DHT22;70306;44.764;37.688;2023-08-01T02:01:37;25.26;71.14
79024;DHT22;70306;44.764;37.688;2023-08-01T02:02:39;25.24;71.26
79024;DHT22;70306;44.764;37.688;2023-08-01T02:03:41;25.26;71.08
79024;DHT22;70306;44.764;37.688;2023-08-01T02:04:44;25.27;70.77
79024;DHT22;70306;44.764;37.688;2023-08-01T02:05:46;25.19;71.03
79024;DHT22;70306;44.764;37.688;2023-08-01T02:06:48;25.23;71.24
79024;DHT22;70306;44.764;37.688;2023-08-01T02:07:50;25.21;71.46
79024;DHT22;70306;44.764;37.688;2023-08-01T02:08:52;25.26;71.56
79024;DHT22;70306;44.764;37.688;2023-08-01T02:09:54;25.27;71.50
79024;DHT22;70306;44.764;37.688;2023-08-01T02:10:56;25.28;71.45
79024;DHT22;70306;44.764;37.688;2023-08-01T02:11:59;25.31;71.39
79024;DHT22;70306;44.764;37.688;2023-08-01T02:13:01;25.34;71.80
79024;DHT22;70306;44.764;37.688;2023-08-01T02:14:03;25.37;71.79
79024;DHT22;70306;44.764;37.688;2023-08-01T02:15:06;25.35;71.72
79024;DHT22;70306;44.764;37.688;2023-08-01T02:16:08;25.37;71.51
79024;DHT22;70306;44.764;37.688;2023-08-01T02:17:10;25.38;71.55
79024;DHT22;70306;44.764;37.688;2023-08-01T02:18:12;25.41;71.85
79024;DHT22;70306;44.764;37.688;2023-08-01T02:19:14;25.38;72.09
79024;DHT22;70306;44.764;37.688;2023-08-01T02:20:16;25.38;71.69
79024;DHT22;70306;44.764;37.688;2023-08-01T02:21:18;25.38;71.91
79024;DHT22;70306;44.764;37.688;2023-08-01T02:22:20;25.37;71.81
79024;DHT22;70306;44.764;37.688;2023-08-01T02:23:22;25.41;71.84
79024;DHT22;70306;44.764;37.688;2023-08-01T02:24:24;25.44;71.89
79024;DHT22;70306;44.764;37.688;2023-08-01T02:25:26;25.48;72.21
79024;DHT22;70306;44.764;37.688;2023-08-01T02:26:28;25.46;71.90
79024;DHT22;70306;44.764;37.688;2023-08-01T02:27:31;25.49;72.29
79024;DHT22;70306;44.764;37.688;2023-08-01T02:28:32;25.48;72.18
79024;DHT22;70306;44.764;37.688;2023-08-01T02:29:34;25.52;72.82
79024;DHT22;70306;44.764;37.688;2023-08-01T02:30:36;25.57;72.55
79024;DHT22;70306;44.764;37.688;2023-08-01T02:31:38;25.59;72.05
79024;DHT22;70306;44.764;37.688;2023-08-01T02:32:40;25.58;72.45
79024;DHT22;70306;44.764;37.688;2023-08-01T02:33:43;25.61;72.16
79024;DHT22;70306;44.764;37.688;2023-08-01T02:34:45;25.63;72.28
79024;DHT22;70306;44.764;37.688;2023-08-01T02:35:47;25.66;72.28
79024;DHT22;70306;44.764;37.688;2023-08-01T02:36:50;25.66;72.51
79024;DHT22;70306;44.764;37.688;2023-08-01T02:37:52;25.69;72.63
79024;DHT22;70306;44.764;37.688;2023-08-01T02:38:54;25.71;71.53
79024;DHT22;70306;44.764;37.688;2023-08-01T02:39:56;25.69;71.70
79024;DHT22;70306;44.764;37.688;2023-08-01T02:40:58;25.69;71.68
79024;DHT22;70306;44.764;37.688;2023-08-01T02:42:00;25.75;71.70
79024;DHT22;70306;44.764;37.688;2023-08-01T02:43:02;25.73;70.59
79024;DHT22;70306;44.764;37.688;2023-08-01T02:44:04;25.73;71.08
79024;DHT22;70306;44.764;37.688;2023-08-01T02:45:06;25.76;71.70
79024;DHT22;70306;44.764;37.688;2023-08-01T02:46:08;25.80;71.64
79024;DHT22;70306;44.764;37.688;2023-08-01T02:47:10;25.85;71.58
79024;DHT22;70306;44.764;37.688;2023-08-01T02:48:12;25.85;71.72
79024;DHT22;70306;44.764;37.688;2023-08-01T02:49:16;25.88;71.28
79024;DHT22;70306;44.764;37.688;2023-08-01T02:50:18;25.90;71.32
79024;DHT22;70306;44.764;37.688;2023-08-01T02:51:20;25.92;71.59
79024;DHT22;70306;44.764;37.688;2023-08-01T02:52:22;25.93;70.90
79024;DHT22;70306;44.764;37.688;2023-08-01T02:53:24;25.96;71.29
79024;DHT22;70306;44.764;37.688;2023-08-01T02:54:26;26.00;71.05
79024;DHT22;70306;44.764;37.688;2023-08-01T02:55:28;26.04;71.02
79024;DHT22;70306;44.764;37.688;2023-08-01T02:56:30;26.08;70.99
79024;DHT22;70306;44.764;37.688;2023-08-01T02:57:32;26.12;71.02
79024;DHT22;70306;44.764;37.688;2023-08-01T02:58:34;26.14;71.00
79024;DHT22;70306;44.764;37.688;2023-08-01T02:59:38;26.16;70.86
79024;DHT22;70306;44.764;37.688;2023-08-01T03:00:40;26.20;70.48
79024;DHT22;70306;44.764;37.688;2023-08-01T03:01:42;26.23;70.50
79024;DHT22;70306;44.764;37.688;2023-08-01T03:02:44;26.28;71.48
79024;DHT22;70306;44.764;37.688;2023-08-01T03:03:46;26.31;71.24
79024;DHT22;70306;44.764;37.688;2023-08-01T03:04:49;26.34;70.90
79024;DHT22;70306;44.764;37.688;2023-08-01T03:05:52;26.38;70.42
79024;DHT22;70306;44.764;37.688;2023-08-01T03:06:54;26.42;71.01
79024;DHT22;70306;44.764;37.688;2023-08-01T03:07:56;26.45;70.59
79024;DHT22;70306;44.764;37.688;2023-08-01T03:08:58;26.48;70.41
79024;DHT22;70306;44.764;37.688;2023-08-01T03:10:01;26.49;70.87
79024;DHT22;70306;44.764;37.688;2023-08-01T03:11:03;26.55;70.92
79024;DHT22;70306;44.764;37.688;2023-08-01T03:12:05;26.59;70.73
79024;DHT22;70306;44.764;37.688;2023-08-01T03:13:07;26.63;70.45
79024;DHT22;70306;44.764;37.688;2023-08-01T03:14:11;26.68;69.92
79024;DHT22;70306;44.764;37.688;2023-08-01T03:15:13;26.71;70.30
79024;DHT22;70306;44.764;37.688;2023-08-01T03:16:15;26.73;70.61
79024;DHT22;70306;44.764;37.688;2023-08-01T03:17:17;26.78;70.62
79024;DHT22;70306;44.764;37.688;2023-08-01T03:18:19;26.80;70.31
79024;DHT22;70306;44.764;37.688;2023-08-01T03:19:21;26.89;71.46
79024;DHT22;70306;44.764;37.688;2023-08-01T03:20:23;26.93;71.45
79024;DHT22;70306;44.764;37.688;2023-08-01T03:21:25;26.94;71.45
79024;DHT22;70306;44.764;37.688;2023-08-01T03:22:28;26.96;72.06
79024;DHT22;70306;44.764;37.688;2023-08-01T03:23:30;27.00;71.51
79024;DHT22;70306;44.764;37.688;2023-08-01T03:24:32;27.02;71.44
79024;DHT22;70306;44.764;37.688;2023-08-01T03:25:35;27.06;71.22
79024;DHT22;70306;44.764;37.688;2023-08-01T03:26:37;27.03;70.94
79024;DHT22;70306;44.764;37.688;2023-08-01T03:27:39;27.10;70.57
79024;DHT22;70306;44.764;37.688;2023-08-01T03:28:41;27.11;71.27
79024;DHT22;70306;44.764;37.688;2023-08-01T03:29:43;27.11;70.24
79024;DHT22;70306;44.764;37.688;2023-08-01T03:30:45;27.15;70.28
79024;DHT22;70306;44.764;37.688;2023-08-01T03:31:50;27.14;70.07
79024;DHT22;70306;44.764;37.688;2023-08-01T03:32:51;27.17;68.90
79024;DHT22;70306;44.764;37.688;2023-08-01T03:33:53;27.13;68.90
79024;DHT22;70306;44.764;37.688;2023-08-01T03:34:56;27.10;69.06
79024;DHT22;70306;44.764;37.688;2023-08-01T03:35:59;27.11;69.27
79024;DHT22;70306;44.764;37.688;2023-08-01T03:37:01;27.06;69.00
79024;DHT22;70306;44.764;37.688;2023-08-01T03:38:03;27.04;69.15
79024;DHT22;70306;44.764;37.688;2023-08-01T03:39:05;27.02;69.31
79024;DHT22;70306;44.764;37.688;2023-08-01T03:40:07;27.04;69.56
79024;DHT22;70306;44.764;37.688;2023-08-01T03:41:11;27.10;69.29
79024;DHT22;70306;44.764;37.688;2023-08-01T03:42:13;27.07;69.09
79024;DHT22;70306;44.764;37.688;2023-08-01T03:43:15;27.07;69.11
79024;DHT22;70306;44.764;37.688;2023-08-01T03:44:17;27.08;69.70
79024;DHT22;70306;44.764;37.688;2023-08-01T03:45:19;27.11;70.43
79024;DHT22;70306;44.764;37.688;2023-08-01T03:46:21;27.15;69.70
79024;DHT22;70306;44.764;37.688;2023-08-01T03:47:24;27.20;69.74
79024;DHT22;70306;44.764;37.688;2023-08-01T03:48:25;27.21;70.22
79024;DHT22;70306;44.764;37.688;2023-08-01T03:49:27;27.26;69.27
79024;DHT22;70306;44.764;37.688;2023-08-01T03:50:29;27.26;69.26
79024;DHT22;70306;44.764;37.688;2023-08-01T03:51:52;27.27;69.99
79024;DHT22;70306;44.764;37.688;2023-08-01T03:52:55;27.34;69.74
79024;DHT22;70306;44.764;37.688;2023-08-01T03:53:57;27.33;70.24
79024;DHT22;70306;44.764;37.688;2023-08-01T03:54:59;27.34;70.17
79024;DHT22;70306;44.764;37.688;2023-08-01T03:56:01;27.35;70.25
79024;DHT22;70306;44.764;37.688;2023-08-01T03:57:04;27.39;70.07
79024;DHT22;70306;44.764;37.688;2023-08-01T03:58:06;27.42;70.74
79024;DHT22;70306;44.764;37.688;2023-08-01T03:59:12;27.45;69.96
79024;DHT22;70306;44.764;37.688;2023-08-01T04:00:14;27.44;70.66
79024;DHT22;70306;44.764;37.688;2023-08-01T04:01:19;27.45;70.32
79024;DHT22;70306;44.764;37.688;2023-08-01T04:02:22;27.49;69.85
79024;DHT22;70306;44.764;37.688;2023-08-01T04:03:25;27.51;70.08
79024;DHT22;70306;44.764;37.688;2023-08-01T04:04:27;27.52;70.03
79024;DHT22;70306;44.764;37.688;2023-08-01T04:05:30;27.55;69.88
79024;DHT22;70306;44.764;37.688;2023-08-01T04:06:32;27.55;70.20
79024;DHT22;70306;44.764;37.688;2023-08-01T04:07:37;27.55;69.80
79024;DHT22;70306;44.764;37.688;2023-08-01T04:08:39;27.59;70.27
79024;DHT22;70306;44.764;37.688;2023-08-01T04:09:41;27.65;70.88
79024;DHT22;70306;44.764;37.688;2023-08-01T04:10:43;27.67;69.73
79024;DHT22;70306;44.764;37.688;2023-08-01T04:11:44;27.67;69.73
79024;DHT22;70306;44.764;37.688;2023-08-01T04:12:46;27.72;69.74
79024;DHT22;70306;44.764;37.688;2023-08-01T04:13:48;27.70;69.43
79024;DHT22;70306;44.764;37.688;2023-08-01T04:14:50;27.78;70.19
79024;DHT22;70306;44.764;37.688;2023-08-01T04:15:52;27.74;69.51
79024;DHT22;70306;44.764;37.688;2023-08-01T04:16:54;27.74;69.71
79024;DHT22;70306;44.764;37.688;2023-08-01T04:17:56;27.74;69.89
79024;DHT22;70306;44.764;37.688;2023-08-01T04:18:58;27.73;69.38
79024;DHT22;70306;44.764;37.688;2023-08-01T04:20:00;27.72;69.34
79024;DHT22;70306;44.764;37.688;2023-08-01T04:21:02;27.72;70.08
79024;DHT22;70306;44.764;37.688;2023-08-01T04:22:04;27.74;70.42
79024;DHT22;70306;44.764;37.688;2023-08-01T04:23:06;27.82;70.14
79024;DHT22;70306;44.764;37.688;2023-08-01T04:24:08;27.82;69.96
79024;DHT22;70306;44.764;37.688;2023-08-01T04:25:10;27.82;69.40
79024;DHT22;70306;44.764;37.688;2023-08-01T04:26:12;27.79;69.46
79024;DHT22;70306;44.764;37.688;2023-08-01T04:27:14;27.82;69.92
79024;DHT22;70306;44.764;37.688;2023-08-01T04:28:16;27.74;69.44
79024;DHT22;70306;44.764;37.688;2023-08-01T04:29:18;27.73;69.95
79024;DHT22;70306;44.764;37.688;2023-08-01T04:30:20;27.66;69.35
79024;DHT22;70306;44.764;37.688;2023-08-01T04:31:22;27.69;69.61
79024;DHT22;70306;44.764;37.688;2023-08-01T04:32:24;27.74;69.38
79024;DHT22;70306;44.764;37.688;2023-08-01T04:33:26;27.76;69.77
79024;DHT22;70306;44.764;37.688;2023-08-01T04:34:28;27.73;69.39
79024;DHT22;70306;44.764;37.688;2023-08-01T04:35:30;27.74;69.69
79024;DHT22;70306;44.764;37.688;2023-08-01T04:36:32;27.72;69.53
79024;DHT22;70306;44.764;37.688;2023-08-01T04:37:34;27.73;69.54
79024;DHT22;70306;44.764;37.688;2023-08-01T04:38:36;27.69;68.94
79024;DHT22;70306;44.764;37.688;2023-08-01T04:39:38;27.62;69.07
79024;DHT22;70306;44.764;37.688;2023-08-01T04:40:41;27.59;69.15
79024;DHT22;70306;44.764;37.688;2023-08-01T04:41:43;27.62;69.35
79024;DHT22;70306;44.764;37.688;2023-08-01T04:42:45;27.61;69.09
79024;DHT22;70306;44.764;37.688;2023-08-01T04:43:46;27.62;69.11
79024;DHT22;70306;44.764;37.688;2023-08-01T04:44:52;27.62;69.03
79024;DHT22;70306;44.764;37.688;2023-08-01T04:45:54;27.63;69.40
79024;DHT22;70306;44.764;37.688;2023-08-01T04:46:56;27.69;69.36
79024;DHT22;70306;44.764;37.688;2023-08-01T04:47:58;27.70;69.33
79024;DHT22;70306;44.764;37.688;2023-08-01T04:49:00;27.72;69.06
79024;DHT22;70306;44.764;37.688;2023-08-01T04:50:02;27.73;69.66
79024;DHT22;70306;44.764;37.688;2023-08-01T04:51:04;27.76;69.98
79024;DHT22;70306;44.764;37.688;2023-08-01T04:52:07;27.74;69.13
79024;DHT22;70306;44.764;37.688;2023-08-01T04:53:09;27.74;68.44
79024;DHT22;70306;44.764;37.688;2023-08-01T04:54:12;27.73;69.40
79024;DHT22;70306;44.764;37.688;2023-08-01T04:55:14;27.73;70.46
79024;DHT22;70306;44.764;37.688;2023-08-01T04:56:16;27.67;69.78
79024;DHT22;70306;44.764;37.688;2023-08-01T04:57:18;27.70;69.65
79024;DHT22;70306;44.764;37.688;2023-08-01T04:58:20;27.67;70.10
79024;DHT22;70306;44.764;37.688;2023-08-01T04:59:27;27.73;70.81
79024;DHT22;70306;44.764;37.688;2023-08-01T05:00:29;27.76;70.29
79024;DHT22;70306;44.764;37.688;2023-08-01T05:01:31;27.78;69.47
79024;DHT22;70306;44.764;37.688;2023-08-01T05:02:33;27.79;70.35
79024;DHT22;70306;44.764;37.688;2023-08-01T05:03:35;27.79;69.32
79024;DHT22;70306;44.764;37.688;2023-08-01T05:04:37;27.82;69.43
79024;DHT22;70306;44.764;37.688;2023-08-01T05:05:39;27.85;69.68
79024;DHT22;70306;44.764;37.688;2023-08-01T05:06:41;27.88;69.23
79024;DHT22;70306;44.764;37.688;2023-08-01T05:07:43;27.92;68.73
79024;DHT22;70306;44.764;37.688;2023-08-01T05:08:46;27.97;69.26
79024;DHT22;70306;44.764;37.688;2023-08-01T05:09:48;28.00;68.74
79024;DHT22;70306;44.764;37.688;2023-08-01T05:10:50;28.08;69.08
79024;DHT22;70306;44.764;37.688;2023-08-01T05:11:52;28.07;67.96
79024;DHT22;70306;44.764;37.688;2023-08-01T05:12:54;28.07;68.55
79024;DHT22;70306;44.764;37.688;2023-08-01T05:13:56;28.18;67.75
79024;DHT22;70306;44.764;37.688;2023-08-01T05:14:57;28.21;67.79
79024;DHT22;70306;44.764;37.688;2023-08-01T05:15:59;28.28;67.86
79024;DHT22;70306;44.764;37.688;2023-08-01T05:17:01;28.34;68.45
79024;DHT22;70306;44.764;37.688;2023-08-01T05:18:03;28.37;67.75
79024;DHT22;70306;44.764;37.688;2023-08-01T05:19:05;28.34;67.61
79024;DHT22;70306;44.764;37.688;2023-08-01T05:20:07;28.40;67.81
79024;DHT22;70306;44.764;37.688;2023-08-01T05:21:09;28.38;67.09
79024;DHT22;70306;44.764;37.688;2023-08-01T05:22:12;28.38;67.29
79024;DHT22;70306;44.764;37.688;2023-08-01T05:23:14;28.41;65.76
79024;DHT22;70306;44.764;37.688;2023-08-01T05:24:15;28.41;65.62
79024;DHT22;70306;44.764;37.688;2023-08-01T05:25:17;28.44;65.71
79024;DHT22;70306;44.764;37.688;2023-08-01T05:26:19;28.47;66.05
79024;DHT22;70306;44.764;37.688;2023-08-01T05:27:21;28.48;65.72
79024;DHT22;70306;44.764;37.688;2023-08-01T05:28:23;28.49;65.41
79024;DHT22;70306;44.764;37.688;2023-08-01T05:29:25;28.52;65.54
79024;DHT22;70306;44.764;37.688;2023-08-01T05:30:27;28.62;65.27
79024;DHT22;70306;44.764;37.688;2023-08-01T05:31:29;28.68;65.79
79024;DHT22;70306;44.764;37.688;2023-08-01T05:32:32;28.79;64.99
79024;DHT22;70306;44.764;37.688;2023-08-01T05:33:34;28.82;64.74
79024;DHT22;70306;44.764;37.688;2023-08-01T05:34:36;28.79;64.12
79024;DHT22;70306;44.764;37.688;2023-08-01T05:35:37;28.79;63.99
79024;DHT22;70306;44.764;37.688;2023-08-01T05:36:39;28.77;64.38
79024;DHT22;70306;44.764;37.688;2023-08-01T05:37:41;28.76;63.35
79024;DHT22;70306;44.764;37.688;2023-08-01T05:38:43;28.73;63.18
79024;DHT22;70306;44.764;37.688;2023-08-01T05:39:45;28.72;62.57
79024;DHT22;70306;44.764;37.688;2023-08-01T05:40:47;28.72;61.67
79024;DHT22;70306;44.764;37.688;2023-08-01T05:41:49;28.80;61.72
79024;DHT22;70306;44.764;37.688;2023-08-01T05:42:52;28.86;62.10
79024;DHT22;70306;44.764;37.688;2023-08-01T05:43:54;28.86;61.30
79024;DHT22;70306;44.764;37.688;2023-08-01T05:44:56;28.83;60.89
79024;DHT22;70306;44.764;37.688;2023-08-01T05:45:58;28.90;60.44
79024;DHT22;70306;44.764;37.688;2023-08-01T05:47:00;28.99;60.05
79024;DHT22;70306;44.764;37.688;2023-08-01T05:48:02;29.06;58.38
79024;DHT22;70306;44.764;37.688;2023-08-01T05:49:04;29.12;59.94
79024;DHT22;70306;44.764;37.688;2023-08-01T05:50:07;29.18;58.93
79024;DHT22;70306;44.764;37.688;2023-08-01T05:51:09;29.20;57.72
79024;DHT22;70306;44.764;37.688;2023-08-01T05:52:11;29.27;55.97
79024;DHT22;70306;44.764;37.688;2023-08-01T05:53:13;29.32;55.18
79024;DHT22;70306;44.764;37.688;2023-08-01T05:54:15;29.35;54.66
79024;DHT22;70306;44.764;37.688;2023-08-01T05:55:17;29.37;53.77
79024;DHT22;70306;44.764;37.688;2023-08-01T05:56:19;29.35;53.00
79024;DHT22;70306;44.764;37.688;2023-08-01T05:57:21;29.38;53.14
79024;DHT22;70306;44.764;37.688;2023-08-01T05:58:23;29.35;53.17
79024;DHT22;70306;44.764;37.688;2023-08-01T05:59:25;29.34;53.23
79024;DHT22;70306;44.764;37.688;2023-08-01T06:00:27;29.32;53.40
79024;DHT22;70306;44.764;37.688;2023-08-01T06:01:29;29.39;54.40
79024;DHT22;70306;44.764;37.688;2023-08-01T06:02:31;29.46;54.27
79024;DHT22;70306;44.764;37.688;2023-08-01T06:03:33;29.49;54.70
79024;DHT22;70306;44.764;37.688;2023-08-01T06:04:35;29.51;55.41
79024;DHT22;70306;44.764;37.688;2023-08-01T06:05:37;29.58;55.37
79024;DHT22;70306;44.764;37.688;2023-08-01T06:06:39;29.62;55.11
79024;DHT22;70306;44.764;37.688;2023-08-01T06:07:41;29.62;53.85
79024;DHT22;70306;44.764;37.688;2023-08-01T06:08:43;29.65;53.89
79024;DHT22;70306;44.764;37.688;2023-08-01T06:09:45;29.72;54.64
79024;DHT22;70306;44.764;37.688;2023-08-01T06:10:47;29.80;54.76
79024;DHT22;70306;44.764;37.688;2023-08-01T06:11:49;29.90;54.65
79024;DHT22;70306;44.764;37.688;2023-08-01T06:12:51;30.00;54.07
79024;DHT22;70306;44.764;37.688;2023-08-01T06:13:53;30.07;52.71
79024;DHT22;70306;44.764;37.688;2023-08-01T06:14:54;30.13;52.04
79024;DHT22;70306;44.764;37.688;2023-08-01T06:15:56;30.17;52.26
79024;DHT22;70306;44.764;37.688;2023-08-01T06:16:58;30.28;53.03
79024;DHT22;70306;44.764;37.688;2023-08-01T06:18:01;30.39;52.56
79024;DHT22;70306;44.764;37.688;2023-08-01T06:19:03;30.45;50.82
79024;DHT22;70306;44.764;37.688;2023-08-01T06:20:06;30.48;50.76
79024;DHT22;70306;44.764;37.688;2023-08-01T06:21:08;30.55;51.12
79024;DHT22;70306;44.764;37.688;2023-08-01T06:22:10;30.49;50.17
79024;DHT22;70306;44.764;37.688;2023-08-01T06:23:12;30.49;49.30
79024;DHT22;70306;44.764;37.688;2023-08-01T06:24:14;30.46;49.06
79024;DHT22;70306;44.764;37.688;2023-08-01T06:25:16;30.51;49.06
79024;DHT22;70306;44.764;37.688;2023-08-01T06:26:18;30.55;49.81
79024;DHT22;70306;44.764;37.688;2023-08-01T06:27:20;30.56;50.33
79024;DHT22;70306;44.764;37.688;2023-08-01T06:28:22;30.56;50.69